Time;durP1;ratioP1;P1;durP2;ratioP2;P2;SDS_P1;SDS_P2;PMS_P1;PMS_P2;Temp;Humidity;BMP_temperature;BMP_pressure;BME280_temperature;BME280_humidity;BME280_pressure;Samples;Min_cycle;Max_cycle;Signal;HPM_P1;HPM_P2
2021/12/13 00:00:28;;;;;;;27.02;17.77;;;;;;;;;;5079820;28;20736;-65
2021/12/13 00:02:55;;;;;;;22.17;16.95;;;;;;;;;;5078389;28;20044;-65
2021/12/13 00:05:34;;;;;;;22.20;16.30;;;;;;;;;;5080148;28;20479;-65
2021/12/13 00:08:04;;;;;;;21.83;16.35;;;;;;;;;;5069307;28;20044;-65
2021/12/13 00:10:35;;;;;;;22.33;16.05;;;;;;;;;;5079550;28;20051;-65
2021/12/13 00:13:05;;;;;;;22.30;16.33;;;;;;;;;;5085570;28;20094;-65
2021/12/13 00:15:34;;;;;;;21.98;15.68;;;;;;;;;;5079476;28;20055;-66
2021/12/13 00:18:05;;;;;;;22.25;14.93;;;;;;;;;;5078475;28;20051;-64
2021/12/13 00:20:39;;;;;;;24.85;16.38;;;;;;;;;;5079989;28;20040;-65
2021/12/13 00:23:15;;;;;;;21.10;14.90;;;;;;;;;;5077893;28;20055;-66
2021/12/13 00:25:43;;;;;;;20.05;15.10;;;;;;;;;;5075836;28;20051;-65
2021/12/13 00:28:13;;;;;;;18.52;13.45;;;;;;;;;;5076294;28;20094;-65
2021/12/13 00:30:46;;;;;;;21.70;15.88;;;;;;;;;;5075748;28;20039;-65
2021/12/13 00:33:25;;;;;;;23.08;15.02;;;;;;;;;;5077568;28;20050;-64
2021/12/13 00:35:57;;;;;;;21.70;15.90;;;;;;;;;;5074779;28;20051;-66
2021/12/13 00:38:24;;;;;;;21.40;14.93;;;;;;;;;;5083209;28;21161;-64
2021/12/13 00:40:54;;;;;;;24.67;17.08;;;;;;;;;;5080105;28;20043;-64
2021/12/13 00:43:22;;;;;;;23.20;15.98;;;;;;;;;;5083309;28;20818;-67
2021/12/13 00:45:53;;;;;;;24.70;15.95;;;;;;;;;;5080813;28;20044;-67
2021/12/13 00:48:20;;;;;;;24.20;15.32;;;;;;;;;;5076799;28;20409;-67
2021/12/13 00:50:52;;;;;;;26.45;15.65;;;;;;;;;;5074072;28;20650;-67
2021/12/13 00:53:19;;;;;;;23.95;16.23;;;;;;;;;;5073710;28;20615;-67
2021/12/13 00:55:47;;;;;;;21.85;15.05;;;;;;;;;;5074106;28;20048;-67
2021/12/13 00:58:16;;;;;;;25.55;15.35;;;;;;;;;;5072871;28;20044;-67
2021/12/13 01:01:01;;;;;;;24.65;15.13;;;;;;;;;;5072295;28;20195;-67
2021/12/13 01:03:27;;;;;;;23.50;15.27;;;;;;;;;;5064686;28;20048;-67
2021/12/13 01:06:03;;;;;;;21.27;15.10;;;;;;;;;;5067774;28;20063;-67
2021/12/13 01:08:48;;;;;;;24.95;15.55;;;;;;;;;;5060817;28;20072;-67
2021/12/13 01:11:19;;;;;;;24.73;16.13;;;;;;;;;;5084814;28;20098;-66
2021/12/13 01:13:51;;;;;;;22.33;15.23;;;;;;;;;;5083474;28;20050;-66
2021/12/13 01:19:13;;;;;;;27.80;16.95;;;;;;;;;;5081303;28;20163;-64
2021/12/13 01:21:55;;;;;;;25.50;15.73;;;;;;;;;;5082471;28;20054;-67
2021/12/13 01:27:10;;;;;;;23.65;16.98;;;;;;;;;;5083554;28;20044;-65
2021/12/13 01:29:36;;;;;;;23.30;17.02;;;;;;;;;;5080092;28;20048;-66
2021/12/13 01:32:06;;;;;;;30.95;18.75;;;;;;;;;;5083844;28;20091;-67
2021/12/13 01:34:35;;;;;;;32.15;18.77;;;;;;;;;;5082127;28;20055;-65
2021/12/13 01:37:14;;;;;;;26.63;18.65;;;;;;;;;;5082453;28;20066;-65
2021/12/13 01:39:44;;;;;;;27.73;18.13;;;;;;;;;;5083364;28;20051;-65
2021/12/13 01:42:12;;;;;;;27.90;18.60;;;;;;;;;;5081789;28;20040;-65
2021/12/13 01:44:43;;;;;;;24.58;17.73;;;;;;;;;;5075325;28;20044;-65
2021/12/13 01:47:14;;;;;;;24.70;17.90;;;;;;;;;;5081763;28;20591;-65
2021/12/13 01:49:43;;;;;;;33.95;18.20;;;;;;;;;;5080204;28;20044;-65
2021/12/13 01:52:09;;;;;;;;;;;;;;;;;;5080607;28;20714;-65
2021/12/13 01:54:38;;;;;;;22.65;17.52;;;;;;;;;;5082967;28;19935;-65
2021/12/13 01:59:55;;;;;;;22.77;16.08;;;;;;;;;;5083075;28;19924;-66
2021/12/13 02:02:22;;;;;;;24.40;17.10;;;;;;;;;;5074338;28;20050;-65
2021/12/13 02:04:58;;;;;;;24.52;17.70;;;;;;;;;;5084440;28;20063;-65
2021/12/13 02:07:25;;;;;;;26.60;20.38;;;;;;;;;;5078689;28;20507;-66
2021/12/13 02:09:52;;;;;;;27.90;20.70;;;;;;;;;;5086470;28;20063;-65
2021/12/13 02:12:19;;;;;;;30.15;22.30;;;;;;;;;;5084768;28;20379;-65
2021/12/13 02:17:41;;;;;;;30.40;22.08;;;;;;;;;;5086114;28;20451;-66
2021/12/13 02:20:11;;;;;;;32.88;22.92;;;;;;;;;;5082075;28;20051;-66
2021/12/13 02:22:48;;;;;;;38.72;22.92;;;;;;;;;;5077719;28;20051;-66
2021/12/13 02:25:17;;;;;;;28.77;20.92;;;;;;;;;;5078857;28;20050;-66
2021/12/13 02:28:04;;;;;;;31.52;21.75;;;;;;;;;;5086005;28;20079;-66
2021/12/13 02:30:30;;;;;;;31.60;22.48;;;;;;;;;;5085242;28;20270;-66
2021/12/13 02:32:57;;;;;;;31.08;21.02;;;;;;;;;;5085813;28;20098;-66
2021/12/13 02:35:27;;;;;;;28.10;21.38;;;;;;;;;;5086071;28;20044;-66
2021/12/13 02:37:54;;;;;;;28.27;20.70;;;;;;;;;;5082362;28;20083;-66
2021/12/13 02:40:21;;;;;;;30.67;21.33;;;;;;;;;;5078061;28;20040;-66
2021/12/13 02:42:48;;;;;;;30.25;21.58;;;;;;;;;;5086722;28;20051;-66
2021/12/13 02:45:32;;;;;;;30.17;22.33;;;;;;;;;;5080992;28;20048;-66
2021/12/13 02:48:01;;;;;;;31.13;20.98;;;;;;;;;;5076506;28;20074;-66
2021/12/13 02:50:35;;;;;;;24.73;19.08;;;;;;;;;;5080359;28;20044;-66
2021/12/13 02:53:02;;;;;;;27.75;20.23;;;;;;;;;;5082122;28;21084;-66
2021/12/13 02:55:29;;;;;;;26.30;18.42;;;;;;;;;;5081463;28;20048;-66
2021/12/13 02:57:56;;;;;;;24.05;16.67;;;;;;;;;;5086930;28;20081;-66
2021/12/13 03:00:24;;;;;;;;;;;;;;;;;;5080076;28;20143;-66
2021/12/13 03:02:54;;;;;;;23.67;16.92;;;;;;;;;;5084012;28;19928;-66
2021/12/13 03:05:26;;;;;;;23.75;16.75;;;;;;;;;;5082988;28;20163;-66
2021/12/13 03:07:54;;;;;;;25.65;17.70;;;;;;;;;;5073444;28;20481;-66
2021/12/13 03:10:26;;;;;;;23.42;16.05;;;;;;;;;;5076274;28;20059;-66
2021/12/13 03:12:53;;;;;;;22.35;16.17;;;;;;;;;;5076350;28;20924;-66
2021/12/13 03:15:21;;;;;;;20.65;15.13;;;;;;;;;;5082200;28;20052;-67
2021/12/13 03:17:49;;;;;;;20.88;14.98;;;;;;;;;;5081450;28;20056;-67
2021/12/13 03:20:16;;;;;;;;;;;;;;;;;;5082045;28;20074;-67
2021/12/13 03:22:54;;;;;;;22.17;14.25;;;;;;;;;;5085805;28;19934;-67
2021/12/13 03:25:32;;;;;;;20.02;14.70;;;;;;;;;;5083213;28;20044;-68
2021/12/13 03:28:02;;;;;;;16.65;13.07;;;;;;;;;;5080485;28;20043;-68
2021/12/13 03:30:30;;;;;;;20.15;13.38;;;;;;;;;;5082420;28;20044;-68
2021/12/13 03:33:19;;;;;;;16.75;12.45;;;;;;;;;;5074913;28;20074;-68
2021/12/13 03:35:50;;;;;;;19.50;13.23;;;;;;;;;;5075732;28;20062;-68
2021/12/13 03:38:29;;;;;;;21.15;13.15;;;;;;;;;;5077044;28;20052;-68
2021/12/13 03:41:00;;;;;;;18.10;13.32;;;;;;;;;;5077379;28;20474;-68
2021/12/13 03:43:29;;;;;;;18.30;12.80;;;;;;;;;;5075196;28;20051;-68
2021/12/13 03:45:57;;;;;;;17.25;13.05;;;;;;;;;;5076105;28;20048;-68
2021/12/13 03:48:25;;;;;;;21.52;13.75;;;;;;;;;;5076298;28;20130;-67
2021/12/13 03:50:53;;;;;;;17.83;12.88;;;;;;;;;;5076492;28;20044;-67
2021/12/13 03:53:25;;;;;;;17.80;12.68;;;;;;;;;;5077475;28;20152;-68
2021/12/13 03:55:56;;;;;;;17.20;12.80;;;;;;;;;;5077093;28;20531;-67
2021/12/13 03:58:23;;;;;;;19.23;12.93;;;;;;;;;;5073213;28;20568;-68
2021/12/13 04:00:55;;;;;;;17.60;13.02;;;;;;;;;;5073797;28;21366;-68
2021/12/13 04:03:23;;;;;;;18.85;12.45;;;;;;;;;;5076401;28;20051;-69
2021/12/13 04:05:50;;;;;;;20.13;13.47;;;;;;;;;;5076581;28;20431;-68
2021/12/13 04:08:18;;;;;;;20.40;12.90;;;;;;;;;;5077170;28;20843;-67
2021/12/13 04:10:46;;;;;;;17.02;12.23;;;;;;;;;;5074875;28;20063;-68
2021/12/13 04:13:15;;;;;;;17.38;12.57;;;;;;;;;;5076398;28;20268;-68
2021/12/13 04:16:08;;;;;;;19.02;12.90;;;;;;;;;;5077496;28;20055;-67
2021/12/13 04:21:19;;;;;;;17.85;11.13;;;;;;;;;;5083210;28;20052;-67
2021/12/13 04:23:54;;;;;;;18.08;12.15;;;;;;;;;;5075422;28;20059;-68
2021/12/13 04:26:21;;;;;;;17.67;11.63;;;;;;;;;;5082423;28;20048;-67
2021/12/13 04:28:50;;;;;;;20.73;12.57;;;;;;;;;;5079949;28;20166;-67
2021/12/13 04:31:16;;;;;;;;;;;;;;;;;;5079957;28;20343;-68
2021/12/13 04:33:44;;;;;;;18.00;11.65;;;;;;;;;;5075303;28;19931;-66
2021/12/13 04:36:16;;;;;;;18.92;11.68;;;;;;;;;;5076858;28;20044;-67
2021/12/13 04:38:50;;;;;;;21.40;12.80;;;;;;;;;;5075762;28;20063;-67
2021/12/13 04:41:35;;;;;;;18.63;12.25;;;;;;;;;;5077416;28;20040;-67
2021/12/13 04:44:01;;;;;;;21.65;13.38;;;;;;;;;;5083868;28;20052;-67
2021/12/13 04:46:29;;;;;;;21.98;13.80;;;;;;;;;;5084097;28;20050;-67
2021/12/13 04:48:58;;;;;;;20.02;12.82;;;;;;;;;;5083025;28;20082;-68
2021/12/13 04:51:24;;;;;;;;;;;;;;;;;;5082849;28;20048;-67
2021/12/13 04:53:52;;;;;;;24.17;13.35;;;;;;;;;;5082409;28;20027;-67
2021/12/13 04:56:21;;;;;;;21.65;13.73;;;;;;;;;;5082038;28;20054;-68
2021/12/13 04:58:48;;;;;;;23.80;14.45;;;;;;;;;;5081214;28;20047;-67
2021/12/13 05:01:16;;;;;;;22.23;14.57;;;;;;;;;;5060022;28;20080;-67
2021/12/13 05:03:48;;;;;;;21.63;13.77;;;;;;;;;;5083379;28;20083;-67
2021/12/13 05:06:17;;;;;;;23.30;14.75;;;;;;;;;;5083417;28;20059;-68
2021/12/13 05:08:44;;;;;;;24.30;14.13;;;;;;;;;;5069091;28;20048;-67
2021/12/13 05:11:11;;;;;;;21.20;14.00;;;;;;;;;;5084312;28;20047;-67
2021/12/13 05:13:39;;;;;;;24.65;14.98;;;;;;;;;;5084523;28;20048;-67
2021/12/13 05:16:09;;;;;;;23.40;14.63;;;;;;;;;;5084107;28;20059;-67
2021/12/13 05:18:44;;;;;;;24.35;15.27;;;;;;;;;;5070151;28;20043;-67
2021/12/13 05:21:13;;;;;;;23.85;15.13;;;;;;;;;;5069592;28;20063;-67
2021/12/13 05:23:47;;;;;;;29.40;14.00;;;;;;;;;;5083277;28;20040;-67
2021/12/13 05:26:26;;;;;;;22.88;14.00;;;;;;;;;;5082804;28;20048;-67
2021/12/13 05:28:52;;;;;;;19.92;12.45;;;;;;;;;;5082691;28;20059;-68
2021/12/13 05:31:21;;;;;;;24.20;15.35;;;;;;;;;;5060537;28;20048;-68
2021/12/13 05:33:53;;;;;;;20.98;13.32;;;;;;;;;;5083168;28;20382;-68
2021/12/13 05:36:22;;;;;;;20.20;14.65;;;;;;;;;;5082890;28;20048;-68
2021/12/13 05:38:50;;;;;;;22.65;14.52;;;;;;;;;;5083172;28;20055;-67
2021/12/13 05:41:21;;;;;;;26.60;15.10;;;;;;;;;;5083722;28;20071;-68
2021/12/13 05:43:49;;;;;;;23.42;14.88;;;;;;;;;;5085633;28;20043;-68
2021/12/13 05:46:18;;;;;;;23.02;15.38;;;;;;;;;;5088611;28;20590;-68
2021/12/13 05:48:47;;;;;;;23.48;14.48;;;;;;;;;;5086768;28;20230;-68
2021/12/13 05:51:33;;;;;;;24.15;13.98;;;;;;;;;;5087258;28;20067;-68
2021/12/13 05:54:01;;;;;;;20.08;14.07;;;;;;;;;;5071674;28;20055;-68
2021/12/13 05:56:32;;;;;;;23.00;13.95;;;;;;;;;;5086264;28;20063;-68
2021/12/13 05:59:19;;;;;;;23.52;14.35;;;;;;;;;;5087067;28;20044;-68
2021/12/13 06:02:04;;;;;;;23.67;13.10;;;;;;;;;;5086646;28;20052;-68
2021/12/13 06:04:42;;;;;;;20.67;13.05;;;;;;;;;;5087105;28;20114;-68
2021/12/13 06:07:14;;;;;;;23.52;13.77;;;;;;;;;;5088180;28;20110;-68
2021/12/13 06:09:40;;;;;;;23.25;14.10;;;;;;;;;;5086847;28;20100;-68
2021/12/13 06:12:09;;;;;;;22.83;13.77;;;;;;;;;;5087984;28;20058;-68
2021/12/13 06:14:35;;;;;;;21.10;13.63;;;;;;;;;;5086633;28;20055;-68
2021/12/13 06:17:10;;;;;;;23.38;13.77;;;;;;;;;;5086852;28;20058;-68
2021/12/13 06:19:46;;;;;;;19.80;13.10;;;;;;;;;;5086497;28;20063;-68
2021/12/13 06:22:18;;;;;;;19.75;12.35;;;;;;;;;;5087162;28;20052;-68
2021/12/13 06:24:46;;;;;;;19.88;12.60;;;;;;;;;;5085928;28;20301;-68
2021/12/13 06:27:12;;;;;;;18.77;12.77;;;;;;;;;;5088097;28;20417;-68
2021/12/13 06:29:46;;;;;;;24.90;13.63;;;;;;;;;;5086117;28;20280;-68
2021/12/13 06:32:24;;;;;;;21.52;13.23;;;;;;;;;;5083491;28;20048;-68
2021/12/13 06:34:50;;;;;;;23.75;13.30;;;;;;;;;;5083492;28;20066;-68
2021/12/13 06:37:22;;;;;;;21.73;12.68;;;;;;;;;;5084844;28;20043;-68
2021/12/13 06:39:49;;;;;;;22.17;12.95;;;;;;;;;;5085491;28;20055;-68
2021/12/13 06:42:15;;;;;;;20.70;13.05;;;;;;;;;;5086764;28;20044;-68
2021/12/13 06:44:45;;;;;;;20.60;11.75;;;;;;;;;;5085932;28;20047;-68
2021/12/13 06:47:21;;;;;;;20.17;12.13;;;;;;;;;;5085854;28;20036;-68
2021/12/13 06:49:50;;;;;;;20.90;12.77;;;;;;;;;;5087186;28;20040;-68
2021/12/13 06:52:16;;;;;;;21.50;12.93;;;;;;;;;;5086500;28;20044;-67
2021/12/13 06:54:44;;;;;;;18.83;12.60;;;;;;;;;;5084923;28;20052;-68
2021/12/13 06:57:31;;;;;;;23.88;14.18;;;;;;;;;;5085682;28;20895;-68
2021/12/13 06:59:59;;;;;;;20.65;12.63;;;;;;;;;;5086892;28;20047;-67
2021/12/13 07:02:46;;;;;;;20.13;12.60;;;;;;;;;;5084531;28;20052;-68
2021/12/13 07:05:20;;;;;;;20.23;11.32;;;;;;;;;;5072199;28;20059;-68
2021/12/13 07:07:55;;;;;;;18.15;11.77;;;;;;;;;;5084257;28;20209;-69
2021/12/13 07:10:23;;;;;;;17.75;12.15;;;;;;;;;;5086301;28;20049;-69
2021/12/13 07:12:51;;;;;;;18.52;11.55;;;;;;;;;;5084591;28;20048;-67
2021/12/13 07:15:38;;;;;;;18.02;12.23;;;;;;;;;;5061981;28;20052;-68
2021/12/13 07:18:15;;;;;;;19.20;12.77;;;;;;;;;;5085522;28;20043;-68
2021/12/13 07:20:43;;;;;;;20.98;12.43;;;;;;;;;;5085620;28;20044;-68
2021/12/13 07:23:10;;;;;;;20.40;12.50;;;;;;;;;;5085155;28;20078;-68
2021/12/13 07:25:38;;;;;;;22.00;13.00;;;;;;;;;;5085067;28;20051;-69
2021/12/13 07:28:05;;;;;;;19.05;12.02;;;;;;;;;;5085501;28;20063;-69
2021/12/13 07:30:33;;;;;;;18.75;11.82;;;;;;;;;;5083723;28;20039;-69
2021/12/13 07:33:01;;;;;;;19.77;12.13;;;;;;;;;;5086600;28;20048;-68
2021/12/13 07:35:32;;;;;;;16.73;10.60;;;;;;;;;;5085273;28;20058;-68
2021/12/13 07:38:11;;;;;;;17.30;11.07;;;;;;;;;;5083993;28;20052;-69
2021/12/13 07:40:40;;;;;;;18.00;11.70;;;;;;;;;;5085411;28;20087;-68
2021/12/13 07:43:09;;;;;;;21.08;11.27;;;;;;;;;;5086956;28;20495;-68
2021/12/13 07:45:42;;;;;;;17.45;10.73;;;;;;;;;;5084804;28;20044;-69
2021/12/13 07:48:11;;;;;;;18.65;10.93;;;;;;;;;;5087039;28;21321;-69
2021/12/13 07:50:38;;;;;;;21.30;11.70;;;;;;;;;;5082040;28;20068;-68
2021/12/13 07:53:06;;;;;;;20.95;12.43;;;;;;;;;;5085297;28;20319;-69
2021/12/13 07:55:32;;;;;;;19.45;12.45;;;;;;;;;;5084744;28;20154;-68
2021/12/13 07:58:02;;;;;;;19.45;12.15;;;;;;;;;;5085311;28;20040;-68
2021/12/13 08:00:34;;;;;;;17.48;10.68;;;;;;;;;;5081826;28;20055;-69
2021/12/13 08:03:06;;;;;;;17.75;11.05;;;;;;;;;;5085625;28;20824;-68
2021/12/13 08:05:38;;;;;;;19.58;11.25;;;;;;;;;;5084133;28;20055;-68
2021/12/13 08:08:06;;;;;;;21.17;11.88;;;;;;;;;;5084019;28;20044;-67
2021/12/13 08:10:37;;;;;;;18.90;11.00;;;;;;;;;;5084052;28;20484;-68
2021/12/13 08:13:09;;;;;;;18.48;10.77;;;;;;;;;;5084122;28;20055;-68
2021/12/13 08:15:35;;;;;;;16.60;10.73;;;;;;;;;;5083898;28;20058;-69
2021/12/13 08:18:05;;;;;;;17.23;10.95;;;;;;;;;;5082643;28;20063;-68
2021/12/13 08:20:34;;;;;;;20.70;10.68;;;;;;;;;;5084522;28;20063;-68
2021/12/13 08:23:04;;;;;;;17.65;10.75;;;;;;;;;;5083463;28;20043;-68
2021/12/13 08:25:32;;;;;;;16.98;10.70;;;;;;;;;;5085719;28;20392;-68
2021/12/13 08:28:01;;;;;;;16.45;9.13;;;;;;;;;;5084553;28;20070;-68
2021/12/13 08:30:31;;;;;;;16.55;10.40;;;;;;;;;;5084542;28;20048;-68
2021/12/13 08:33:13;;;;;;;16.73;11.00;;;;;;;;;;5085020;28;20056;-68
2021/12/13 08:35:54;;;;;;;15.88;10.50;;;;;;;;;;5084840;28;20595;-68
2021/12/13 08:38:39;;;;;;;19.27;11.20;;;;;;;;;;5083565;28;20059;-68
2021/12/13 08:41:15;;;;;;;15.27;10.65;;;;;;;;;;5083789;28;20040;-68
2021/12/13 08:43:43;;;;;;;17.02;10.55;;;;;;;;;;5084650;28;20054;-66
2021/12/13 08:46:09;;;;;;;;;;;;;;;;;;5084282;28;20051;-67
2021/12/13 08:48:47;;;;;;;17.52;10.25;;;;;;;;;;5082659;28;19924;-67
2021/12/13 08:51:22;;;;;;;17.90;11.10;;;;;;;;;;5081444;28;20075;-67
2021/12/13 08:54:08;;;;;;;15.93;10.15;;;;;;;;;;5080656;28;20143;-67
2021/12/13 08:56:42;;;;;;;14.85;9.10;;;;;;;;;;5081692;28;20056;-66
2021/12/13 08:59:18;;;;;;;14.50;9.73;;;;;;;;;;5083841;28;20087;-68
2021/12/13 09:01:47;;;;;;;14.48;9.57;;;;;;;;;;5084045;28;20052;-67
2021/12/13 09:04:28;;;;;;;15.35;9.05;;;;;;;;;;5083820;28;20090;-67
2021/12/13 09:06:58;;;;;;;12.25;8.65;;;;;;;;;;5083927;28;20048;-67
2021/12/13 09:09:25;;;;;;;15.82;9.50;;;;;;;;;;5081061;28;20071;-67
2021/12/13 09:12:00;;;;;;;14.63;9.43;;;;;;;;;;5083358;28;20044;-67
2021/12/13 09:14:42;;;;;;;12.88;8.63;;;;;;;;;;5082501;28;20149;-67
2021/12/13 09:17:16;;;;;;;15.32;9.57;;;;;;;;;;5083047;28;20156;-67
2021/12/13 09:19:49;;;;;;;14.50;9.20;;;;;;;;;;5088328;28;20079;-67
2021/12/13 09:22:21;;;;;;;17.20;9.38;;;;;;;;;;5086241;28;20059;-68
2021/12/13 09:24:56;;;;;;;14.50;9.07;;;;;;;;;;5086282;28;20056;-67
2021/12/13 09:27:40;;;;;;;16.80;8.18;;;;;;;;;;5087230;28;20572;-67
2021/12/13 09:30:14;;;;;;;15.55;9.20;;;;;;;;;;5086986;28;20051;-67
2021/12/13 09:32:42;;;;;;;15.32;9.07;;;;;;;;;;5087501;28;20052;-67
2021/12/13 09:35:27;;;;;;;17.58;7.93;;;;;;;;;;5088580;28;20601;-67
2021/12/13 09:37:56;;;;;;;13.40;8.30;;;;;;;;;;5083864;28;20039;-67
2021/12/13 09:40:34;;;;;;;14.70;8.52;;;;;;;;;;5086347;28;20051;-67
2021/12/13 09:43:01;;;;;;;13.88;9.02;;;;;;;;;;5088581;28;20373;-68
2021/12/13 09:45:33;;;;;;;13.70;8.55;;;;;;;;;;5085906;28;20040;-67
2021/12/13 09:48:13;;;;;;;14.85;8.88;;;;;;;;;;5087128;28;20056;-67
2021/12/13 09:50:39;;;;;;;11.98;7.50;;;;;;;;;;5086989;28;20366;-67
2021/12/13 09:53:09;;;;;;;11.63;8.18;;;;;;;;;;5087338;28;20043;-67
2021/12/13 09:55:42;;;;;;;13.23;8.18;;;;;;;;;;5086535;28;20047;-66
2021/12/13 09:58:09;;;;;;;14.07;8.68;;;;;;;;;;5086282;28;20051;-67
2021/12/13 10:00:49;;;;;;;13.77;8.23;;;;;;;;;;5087436;28;20427;-67
2021/12/13 10:03:21;;;;;;;12.10;8.00;;;;;;;;;;5087526;28;20105;-66
2021/12/13 10:05:51;;;;;;;11.90;7.38;;;;;;;;;;5086971;28;20044;-66
2021/12/13 10:08:19;;;;;;;13.68;8.23;;;;;;;;;;5084748;28;20385;-66
2021/12/13 10:10:56;;;;;;;12.07;7.50;;;;;;;;;;5086746;28;20070;-66
2021/12/13 10:13:24;;;;;;;12.20;7.43;;;;;;;;;;5084193;28;20078;-66
2021/12/13 10:16:02;;;;;;;13.52;6.85;;;;;;;;;;5084087;28;20056;-65
2021/12/13 10:18:31;;;;;;;12.02;7.60;;;;;;;;;;5087488;28;20546;-66
2021/12/13 10:20:57;;;;;;;;;;;;;;;;;;5085482;28;20568;-66
2021/12/13 10:23:25;;;;;;;11.25;6.70;;;;;;;;;;5085268;28;20296;-65
2021/12/13 10:25:54;;;;;;;9.88;6.90;;;;;;;;;;5084693;28;20429;-66
2021/12/13 10:28:24;;;;;;;12.07;7.18;;;;;;;;;;5087146;28;20048;-66
2021/12/13 10:30:52;;;;;;;11.13;7.45;;;;;;;;;;5086816;28;20051;-66
2021/12/13 10:33:20;;;;;;;10.45;6.95;;;;;;;;;;5086625;28;20048;-66
2021/12/13 10:35:49;;;;;;;11.93;7.05;;;;;;;;;;5087447;28;20441;-66
2021/12/13 10:38:15;;;;;;;;;;;;;;;;;;5085967;28;20048;-66
2021/12/13 10:40:43;;;;;;;10.45;6.57;;;;;;;;;;5087215;28;19924;-66
2021/12/13 10:43:16;;;;;;;12.30;6.82;;;;;;;;;;5086460;28;20067;-66
2021/12/13 10:45:57;;;;;;;9.82;6.97;;;;;;;;;;5086945;28;20079;-67
2021/12/13 10:48:27;;;;;;;11.75;6.40;;;;;;;;;;5084055;28;20044;-66
2021/12/13 10:50:56;;;;;;;10.95;6.25;;;;;;;;;;5086332;28;20187;-66
2021/12/13 10:53:24;;;;;;;12.02;6.78;;;;;;;;;;5061556;28;20063;-66
2021/12/13 10:55:56;;;;;;;10.55;6.90;;;;;;;;;;5061384;28;20055;-66
2021/12/13 10:58:25;;;;;;;10.30;6.30;;;;;;;;;;5054511;28;20044;-66
2021/12/13 11:01:01;;;;;;;9.93;6.22;;;;;;;;;;5059669;28;20048;-66
2021/12/13 11:03:29;;;;;;;10.48;7.18;;;;;;;;;;5058370;28;20319;-66
2021/12/13 11:05:56;;;;;;;11.32;6.97;;;;;;;;;;5063291;28;20426;-65
2021/12/13 11:08:23;;;;;;;10.15;6.53;;;;;;;;;;5061372;28;20407;-66
2021/12/13 11:10:55;;;;;;;11.65;5.60;;;;;;;;;;5054125;28;20056;-65
2021/12/13 11:13:23;;;;;;;9.95;6.20;;;;;;;;;;5054539;28;20048;-65
2021/12/13 11:15:52;;;;;;;11.38;5.88;;;;;;;;;;5058781;28;20059;-65
2021/12/13 11:18:26;;;;;;;9.65;6.05;;;;;;;;;;5064309;28;20048;-65
2021/12/13 11:20:53;;;;;;;8.15;5.50;;;;;;;;;;5061349;28;20048;-66
2021/12/13 11:23:20;;;;;;;9.63;6.43;;;;;;;;;;5064214;28;20095;-65
2021/12/13 11:25:49;;;;;;;9.95;6.38;;;;;;;;;;5055342;28;20441;-66
2021/12/13 11:28:15;;;;;;;11.60;5.72;;;;;;;;;;5057656;28;20057;-66
2021/12/13 11:30:45;;;;;;;10.32;6.07;;;;;;;;;;5060563;28;20289;-66
2021/12/13 11:33:22;;;;;;;13.23;6.63;;;;;;;;;;5063177;28;20633;-66
2021/12/13 11:35:51;;;;;;;9.30;5.82;;;;;;;;;;5062784;28;20044;-67
2021/12/13 11:38:36;;;;;;;13.55;6.43;;;;;;;;;;5061995;28;20048;-67
2021/12/13 11:41:22;;;;;;;9.60;5.80;;;;;;;;;;5058110;28;20295;-67
2021/12/13 11:44:06;;;;;;;9.07;6.05;;;;;;;;;;5054119;28;20048;-67
2021/12/13 11:46:48;;;;;;;9.43;5.53;;;;;;;;;;5063184;28;20044;-67
2021/12/13 11:49:14;;;;;;;8.60;5.57;;;;;;;;;;5056694;28;20055;-67
2021/12/13 11:51:59;;;;;;;10.38;5.40;;;;;;;;;;5054372;28;20066;-67
2021/12/13 11:54:38;;;;;;;8.05;5.15;;;;;;;;;;5053812;28;20055;-67
2021/12/13 11:57:05;;;;;;;8.70;5.18;;;;;;;;;;5054231;28;20052;-67
2021/12/13 11:59:34;;;;;;;7.97;5.53;;;;;;;;;;5053442;28;20067;-67
2021/12/13 12:02:08;;;;;;;9.55;5.47;;;;;;;;;;5060386;28;20747;-67
2021/12/13 12:04:38;;;;;;;10.15;5.90;;;;;;;;;;5063013;28;20052;-67
2021/12/13 12:07:10;;;;;;;7.38;4.63;;;;;;;;;;5061369;28;20052;-67
2021/12/13 12:09:55;;;;;;;9.15;5.63;;;;;;;;;;5046876;28;20055;-67
2021/12/13 12:12:44;;;;;;;7.13;4.95;;;;;;;;;;5062263;28;20063;-68
2021/12/13 12:15:11;;;;;;;7.65;4.57;;;;;;;;;;5060433;28;20322;-68
2021/12/13 12:17:38;;;;;;;9.18;5.57;;;;;;;;;;5055727;28;20051;-68
2021/12/13 12:20:10;;;;;;;9.70;5.80;;;;;;;;;;5053409;28;20311;-68
2021/12/13 12:22:47;;;;;;;8.30;5.65;;;;;;;;;;5061721;28;20060;-68
2021/12/13 12:25:13;;;;;;;8.00;5.30;;;;;;;;;;5056406;28;20044;-67
2021/12/13 12:27:40;;;;;;;8.52;4.95;;;;;;;;;;5046188;28;20406;-67
2021/12/13 12:30:06;;;;;;;9.60;5.30;;;;;;;;;;5058450;28;20379;-67
2021/12/13 12:32:34;;;;;;;7.30;4.93;;;;;;;;;;5059668;28;20044;-67
2021/12/13 12:35:03;;;;;;;6.97;4.85;;;;;;;;;;5060035;28;20063;-68
2021/12/13 12:37:32;;;;;;;;;;;;;;;;;;5055522;28;20504;-67
2021/12/13 12:40:08;;;;;;;10.32;5.05;;;;;;;;;;5062066;28;20347;-67
2021/12/13 12:42:40;;;;;;;8.68;4.90;;;;;;;;;;5060945;28;20394;-67
2021/12/13 12:45:09;;;;;;;7.45;4.90;;;;;;;;;;5059970;28;20055;-67
2021/12/13 12:47:36;;;;;;;7.05;4.80;;;;;;;;;;5061366;28;20053;-67
2021/12/13 12:50:13;;;;;;;6.63;4.57;;;;;;;;;;5063359;28;20059;-67
2021/12/13 12:52:56;;;;;;;7.45;5.03;;;;;;;;;;5058090;28;20045;-67
2021/12/13 12:55:25;;;;;;;6.72;5.00;;;;;;;;;;5054553;28;20053;-67
2021/12/13 12:57:51;;;;;;;6.70;4.93;;;;;;;;;;5044502;28;20052;-67
2021/12/13 13:00:23;;;;;;;8.05;4.53;;;;;;;;;;5063797;28;20403;-67
2021/12/13 13:02:50;;;;;;;7.00;4.97;;;;;;;;;;5044990;28;20049;-67
2021/12/13 13:05:18;;;;;;;8.50;5.60;;;;;;;;;;5059227;28;20055;-68
2021/12/13 13:07:44;;;;;;;8.88;5.20;;;;;;;;;;5052422;28;20051;-67
2021/12/13 13:12:58;;;;;;;6.85;5.07;;;;;;;;;;5050406;28;20497;-68
2021/12/13 13:15:25;;;;;;;7.75;5.07;;;;;;;;;;5058395;28;20051;-67
2021/12/13 13:18:09;;;;;;;6.25;4.68;;;;;;;;;;5053362;28;20052;-68
2021/12/13 13:20:38;;;;;;;6.35;4.38;;;;;;;;;;5057081;28;20057;-67
2021/12/13 13:23:05;;;;;;;6.28;4.82;;;;;;;;;;5060186;28;20053;-67
2021/12/13 13:25:38;;;;;;;7.78;4.78;;;;;;;;;;5060576;28;20599;-67
2021/12/13 13:28:14;;;;;;;7.47;4.80;;;;;;;;;;5060703;28;20387;-68
2021/12/13 13:30:43;;;;;;;8.07;4.95;;;;;;;;;;5060171;28;20040;-67
2021/12/13 13:33:10;;;;;;;7.80;4.75;;;;;;;;;;5061601;28;20047;-67
2021/12/13 13:35:37;;;;;;;7.32;4.75;;;;;;;;;;5062026;28;20245;-67
2021/12/13 13:38:04;;;;;;;7.18;4.85;;;;;;;;;;5062533;28;20056;-67
2021/12/13 13:40:32;;;;;;;6.40;4.70;;;;;;;;;;5059368;28;20048;-67
2021/12/13 13:43:00;;;;;;;7.38;4.80;;;;;;;;;;5060753;28;20098;-68
2021/12/13 13:45:47;;;;;;;5.90;4.30;;;;;;;;;;5062478;28;20107;-68
2021/12/13 13:48:16;;;;;;;5.90;3.83;;;;;;;;;;5059558;28;20044;-67
2021/12/13 13:50:43;;;;;;;6.78;4.22;;;;;;;;;;5061713;28;20155;-68
2021/12/13 13:53:21;;;;;;;8.23;4.03;;;;;;;;;;5057644;28;20642;-68
2021/12/13 13:55:50;;;;;;;9.23;4.68;;;;;;;;;;5060181;28;20496;-68
2021/12/13 13:58:20;;;;;;;8.02;4.18;;;;;;;;;;5053567;28;20052;-68
2021/12/13 14:01:10;;;;;;;8.52;4.47;;;;;;;;;;5060516;28;20052;-67
2021/12/13 14:03:39;;;;;;;7.22;4.20;;;;;;;;;;5018303;28;20049;-67
2021/12/13 14:06:07;;;;;;;10.13;4.50;;;;;;;;;;5047723;28;20453;-67
2021/12/13 14:08:34;;;;;;;7.85;4.07;;;;;;;;;;5048391;28;20048;-68
2021/12/13 14:11:02;;;;;;;6.50;3.85;;;;;;;;;;5057227;28;20079;-67
2021/12/13 14:13:32;;;;;;;6.93;4.10;;;;;;;;;;5059075;28;20162;-68
2021/12/13 14:15:58;;;;;;;6.63;4.25;;;;;;;;;;5055599;28;20048;-67
2021/12/13 14:18:27;;;;;;;5.95;3.83;;;;;;;;;;5055420;28;20077;-68
2021/12/13 14:20:55;;;;;;;7.50;4.25;;;;;;;;;;5055832;28;20453;-67
2021/12/13 14:23:26;;;;;;;5.53;3.75;;;;;;;;;;5055546;28;20052;-67
2021/12/13 14:25:52;;;;;;;5.53;3.88;;;;;;;;;;5054834;28;20288;-67
2021/12/13 14:28:30;;;;;;;6.22;4.18;;;;;;;;;;5045719;28;20060;-67
2021/12/13 14:30:58;;;;;;;6.05;3.63;;;;;;;;;;5047393;28;20056;-67
2021/12/13 14:33:32;;;;;;;6.07;3.55;;;;;;;;;;5057737;28;20052;-67
2021/12/13 14:36:00;;;;;;;5.68;4.00;;;;;;;;;;5054615;28;20044;-67
2021/12/13 14:38:27;;;;;;;5.03;3.50;;;;;;;;;;5056585;28;20053;-67
2021/12/13 14:40:55;;;;;;;6.68;3.90;;;;;;;;;;5045047;28;20052;-67
2021/12/13 14:43:23;;;;;;;8.00;4.30;;;;;;;;;;5056060;28;20150;-67
2021/12/13 14:45:50;;;;;;;6.32;3.88;;;;;;;;;;5060470;28;20056;-68
2021/12/13 14:48:23;;;;;;;5.50;3.30;;;;;;;;;;5053029;28;20277;-68
2021/12/13 14:50:51;;;;;;;5.07;3.53;;;;;;;;;;5055519;28;20927;-67
2021/12/13 14:53:22;;;;;;;5.50;4.03;;;;;;;;;;5062339;28;20060;-67
2021/12/13 14:55:49;;;;;;;6.65;4.10;;;;;;;;;;5062286;28;20055;-67
2021/12/13 14:58:19;;;;;;;6.05;3.92;;;;;;;;;;5060526;28;20059;-67
2021/12/13 15:00:49;;;;;;;8.88;4.25;;;;;;;;;;5057379;28;20671;-67
2021/12/13 15:03:19;;;;;;;7.72;3.97;;;;;;;;;;5061938;28;20360;-67
2021/12/13 15:05:50;;;;;;;6.00;3.72;;;;;;;;;;5061628;28;20445;-67
2021/12/13 15:08:22;;;;;;;8.38;3.90;;;;;;;;;;5065665;28;20139;-68